sensor_id;sensor_type;location;lat;lon;timestamp;temperature;humidity
5870;DHT22;2961;47.702;9.410;2023-11-19T00:02:25;6.40;99.90
5870;DHT22;2961;47.702;9.410;2023-11-19T00:04:52;6.40;99.90
5870;DHT22;2961;47.702;9.410;2023-11-19T00:07:19;6.40;99.90
5870;DHT22;2961;47.702;9.410;2023-11-19T00:09:46;6.40;99.90
5870;DHT22;2961;47.702;9.410;2023-11-19T00:12:13;6.40;99.90
5870;DHT22;2961;47.702;9.410;2023-11-19T00:14:40;6.30;99.90
5870;DHT22;2961;47.702;9.410;2023-11-19T00:17:08;6.30;99.90
5870;DHT22;2961;47.702;9.410;2023-11-19T00:19:34;6.30;99.90
5870;DHT22;2961;47.702;9.410;2023-11-19T00:22:01;6.30;99.90
5870;DHT22;2961;47.702;9.410;2023-11-19T00:24:29;6.30;99.90
5870;DHT22;2961;47.702;9.410;2023-11-19T00:26:57;6.30;99.90
5870;DHT22;2961;47.702;9.410;2023-11-19T00:29:24;6.30;99.90
5870;DHT22;2961;47.702;9.410;2023-11-19T00:31:50;6.30;99.90
5870;DHT22;2961;47.702;9.410;2023-11-19T00:34:19;6.50;99.90
5870;DHT22;2961;47.702;9.410;2023-11-19T00:36:48;6.50;99.90
5870;DHT22;2961;47.702;9.410;2023-11-19T00:39:15;6.50;99.90
5870;DHT22;2961;47.702;9.410;2023-11-19T00:41:41;6.50;99.90
5870;DHT22;2961;47.702;9.410;2023-11-19T00:44:08;6.50;99.90
5870;DHT22;2961;47.702;9.410;2023-11-19T00:46:35;6.50;99.90
5870;DHT22;2961;47.702;9.410;2023-11-19T00:49:02;6.50;99.90
5870;DHT22;2961;47.702;9.410;2023-11-19T00:51:30;6.50;99.90
5870;DHT22;2961;47.702;9.410;2023-11-19T00:53:58;6.50;99.90
5870;DHT22;2961;47.702;9.410;2023-11-19T00:56:24;6.60;99.90
5870;DHT22;2961;47.702;9.410;2023-11-19T00:58:51;6.60;99.90
5870;DHT22;2961;47.702;9.410;2023-11-19T01:01:18;6.50;99.90
5870;DHT22;2961;47.702;9.410;2023-11-19T01:03:45;6.50;99.90
5870;DHT22;2961;47.702;9.410;2023-11-19T01:06:11;6.50;99.90
5870;DHT22;2961;47.702;9.410;2023-11-19T01:08:42;6.50;99.90
5870;DHT22;2961;47.702;9.410;2023-11-19T01:11:09;6.50;99.90
5870;DHT22;2961;47.702;9.410;2023-11-19T01:13:35;6.50;99.90
5870;DHT22;2961;47.702;9.410;2023-11-19T01:16:03;6.60;99.90
5870;DHT22;2961;47.702;9.410;2023-11-19T01:18:29;6.50;99.90
5870;DHT22;2961;47.702;9.410;2023-11-19T01:20:57;6.60;99.90
5870;DHT22;2961;47.702;9.410;2023-11-19T01:23:23;6.60;99.90
5870;DHT22;2961;47.702;9.410;2023-11-19T01:25:52;6.60;99.90
5870;DHT22;2961;47.702;9.410;2023-11-19T01:28:18;6.70;99.90
5870;DHT22;2961;47.702;9.410;2023-11-19T01:30:45;6.70;99.90
5870;DHT22;2961;47.702;9.410;2023-11-19T01:33:12;6.70;99.90
5870;DHT22;2961;47.702;9.410;2023-11-19T01:35:39;6.70;99.90
5870;DHT22;2961;47.702;9.410;2023-11-19T01:38:06;6.60;99.90
5870;DHT22;2961;47.702;9.410;2023-11-19T01:40:34;6.60;99.90
5870;DHT22;2961;47.702;9.410;2023-11-19T01:43:04;6.60;99.90
5870;DHT22;2961;47.702;9.410;2023-11-19T01:45:31;6.60;99.90
5870;DHT22;2961;47.702;9.410;2023-11-19T01:48:02;6.60;99.90
5870;DHT22;2961;47.702;9.410;2023-11-19T01:50:30;6.60;99.90
5870;DHT22;2961;47.702;9.410;2023-11-19T01:52:57;6.60;99.90
5870;DHT22;2961;47.702;9.410;2023-11-19T01:55:24;6.60;99.90
5870;DHT22;2961;47.702;9.410;2023-11-19T01:57:53;6.60;99.90
5870;DHT22;2961;47.702;9.410;2023-11-19T02:00:22;6.60;99.90
5870;DHT22;2961;47.702;9.410;2023-11-19T02:02:50;6.60;99.90
5870;DHT22;2961;47.702;9.410;2023-11-19T02:05:20;6.60;99.90
5870;DHT22;2961;47.702;9.410;2023-11-19T02:07:47;6.60;99.90
5870;DHT22;2961;47.702;9.410;2023-11-19T02:10:15;6.60;99.90
5870;DHT22;2961;47.702;9.410;2023-11-19T02:12:45;6.70;99.90
5870;DHT22;2961;47.702;9.410;2023-11-19T02:15:12;6.70;99.90
5870;DHT22;2961;47.702;9.410;2023-11-19T02:17:40;6.70;99.90
5870;DHT22;2961;47.702;9.410;2023-11-19T02:20:09;6.80;99.90
5870;DHT22;2961;47.702;9.410;2023-11-19T02:22:37;6.80;99.90
5870;DHT22;2961;47.702;9.410;2023-11-19T02:25:07;6.80;99.90
5870;DHT22;2961;47.702;9.410;2023-11-19T02:27:55;6.80;99.90
5870;DHT22;2961;47.702;9.410;2023-11-19T02:30:23;6.80;99.90
5870;DHT22;2961;47.702;9.410;2023-11-19T02:32:52;6.70;99.90
5870;DHT22;2961;47.702;9.410;2023-11-19T02:35:18;6.70;99.90
5870;DHT22;2961;47.702;9.410;2023-11-19T02:37:47;6.70;99.90
5870;DHT22;2961;47.702;9.410;2023-11-19T02:40:14;6.60;99.90
5870;DHT22;2961;47.702;9.410;2023-11-19T02:42:41;6.70;99.90
5870;DHT22;2961;47.702;9.410;2023-11-19T02:45:10;6.70;99.90
5870;DHT22;2961;47.702;9.410;2023-11-19T02:47:40;6.70;99.90
5870;DHT22;2961;47.702;9.410;2023-11-19T02:50:08;6.70;99.90
5870;DHT22;2961;47.702;9.410;2023-11-19T02:52:40;6.70;99.90
5870;DHT22;2961;47.702;9.410;2023-11-19T02:55:07;6.70;99.90
5870;DHT22;2961;47.702;9.410;2023-11-19T02:57:38;6.70;99.90
5870;DHT22;2961;47.702;9.410;2023-11-19T03:00:13;6.70;99.90
5870;DHT22;2961;47.702;9.410;2023-11-19T03:02:40;6.70;99.90
5870;DHT22;2961;47.702;9.410;2023-11-19T03:05:12;6.70;99.90
5870;DHT22;2961;47.702;9.410;2023-11-19T03:07:41;6.70;99.90
5870;DHT22;2961;47.702;9.410;2023-11-19T03:10:09;6.70;99.90
5870;DHT22;2961;47.702;9.410;2023-11-19T03:12:39;6.60;99.90
5870;DHT22;2961;47.702;9.410;2023-11-19T03:15:06;6.70;99.90
5870;DHT22;2961;47.702;9.410;2023-11-19T03:17:38;6.70;99.90
5870;DHT22;2961;47.702;9.410;2023-11-19T03:20:06;6.70;99.90
5870;DHT22;2961;47.702;9.410;2023-11-19T03:22:35;6.70;99.90
5870;DHT22;2961;47.702;9.410;2023-11-19T03:25:04;6.70;99.90
5870;DHT22;2961;47.702;9.410;2023-11-19T03:27:34;6.70;99.90
5870;DHT22;2961;47.702;9.410;2023-11-19T03:30:01;6.70;99.90
5870;DHT22;2961;47.702;9.410;2023-11-19T03:32:30;6.70;99.90
5870;DHT22;2961;47.702;9.410;2023-11-19T03:34:58;6.70;99.90
5870;DHT22;2961;47.702;9.410;2023-11-19T03:37:26;6.70;99.90
5870;DHT22;2961;47.702;9.410;2023-11-19T03:39:53;6.70;99.90
5870;DHT22;2961;47.702;9.410;2023-11-19T03:42:20;6.70;99.90
5870;DHT22;2961;47.702;9.410;2023-11-19T03:44:47;6.80;99.90
5870;DHT22;2961;47.702;9.410;2023-11-19T03:47:16;6.80;99.90
5870;DHT22;2961;47.702;9.410;2023-11-19T03:49:42;6.70;99.90
5870;DHT22;2961;47.702;9.410;2023-11-19T03:52:11;6.70;99.90
5870;DHT22;2961;47.702;9.410;2023-11-19T03:54:38;6.80;99.90
5870;DHT22;2961;47.702;9.410;2023-11-19T03:57:04;6.80;99.90
5870;DHT22;2961;47.702;9.410;2023-11-19T03:59:31;6.80;99.90
5870;DHT22;2961;47.702;9.410;2023-11-19T04:01:58;6.90;99.90
5870;DHT22;2961;47.702;9.410;2023-11-19T04:04:26;6.90;99.90
5870;DHT22;2961;47.702;9.410;2023-11-19T04:06:53;6.90;99.90
5870;DHT22;2961;47.702;9.410;2023-11-19T04:09:21;6.80;99.90
5870;DHT22;2961;47.702;9.410;2023-11-19T04:11:48;6.90;99.90
5870;DHT22;2961;47.702;9.410;2023-11-19T04:14:15;6.90;99.90
5870;DHT22;2961;47.702;9.410;2023-11-19T04:16:43;6.90;99.90
5870;DHT22;2961;47.702;9.410;2023-11-19T04:19:10;6.80;99.90
5870;DHT22;2961;47.702;9.410;2023-11-19T04:21:39;6.80;99.90
5870;DHT22;2961;47.702;9.410;2023-11-19T04:24:07;6.80;99.90
5870;DHT22;2961;47.702;9.410;2023-11-19T04:26:36;6.80;99.90
5870;DHT22;2961;47.702;9.410;2023-11-19T04:29:02;6.90;99.90
5870;DHT22;2961;47.702;9.410;2023-11-19T04:31:29;6.80;99.90
5870;DHT22;2961;47.702;9.410;2023-11-19T04:33:57;6.80;99.90
5870;DHT22;2961;47.702;9.410;2023-11-19T04:36:25;6.80;99.90
5870;DHT22;2961;47.702;9.410;2023-11-19T04:38:52;6.90;99.90
5870;DHT22;2961;47.702;9.410;2023-11-19T04:41:19;6.90;99.90
5870;DHT22;2961;47.702;9.410;2023-11-19T04:43:47;6.90;99.90
5870;DHT22;2961;47.702;9.410;2023-11-19T04:46:14;6.90;99.90
5870;DHT22;2961;47.702;9.410;2023-11-19T04:48:41;6.90;99.90
5870;DHT22;2961;47.702;9.410;2023-11-19T04:51:08;6.90;99.90
5870;DHT22;2961;47.702;9.410;2023-11-19T04:53:35;7.00;99.90
5870;DHT22;2961;47.702;9.410;2023-11-19T04:56:07;7.00;99.90
5870;DHT22;2961;47.702;9.410;2023-11-19T04:58:34;7.00;99.90
5870;DHT22;2961;47.702;9.410;2023-11-19T05:01:04;7.00;99.90
5870;DHT22;2961;47.702;9.410;2023-11-19T05:03:31;7.00;99.90
5870;DHT22;2961;47.702;9.410;2023-11-19T05:05:58;7.00;99.90
5870;DHT22;2961;47.702;9.410;2023-11-19T05:08:25;7.00;99.90
5870;DHT22;2961;47.702;9.410;2023-11-19T05:10:52;7.00;99.90
5870;DHT22;2961;47.702;9.410;2023-11-19T05:13:19;7.00;99.90
5870;DHT22;2961;47.702;9.410;2023-11-19T05:15:45;7.00;99.90
5870;DHT22;2961;47.702;9.410;2023-11-19T05:18:13;7.00;99.90
5870;DHT22;2961;47.702;9.410;2023-11-19T05:20:40;7.00;99.90
5870;DHT22;2961;47.702;9.410;2023-11-19T05:23:07;7.10;99.90
5870;DHT22;2961;47.702;9.410;2023-11-19T05:25:34;7.10;99.90
5870;DHT22;2961;47.702;9.410;2023-11-19T05:28:00;7.10;99.90
5870;DHT22;2961;47.702;9.410;2023-11-19T05:30:27;7.10;99.90
5870;DHT22;2961;47.702;9.410;2023-11-19T05:32:54;7.20;99.90
5870;DHT22;2961;47.702;9.410;2023-11-19T05:35:22;7.20;99.90
5870;DHT22;2961;47.702;9.410;2023-11-19T05:37:49;7.20;99.90
5870;DHT22;2961;47.702;9.410;2023-11-19T05:40:16;7.30;99.90
5870;DHT22;2961;47.702;9.410;2023-11-19T05:42:43;7.40;99.90
5870;DHT22;2961;47.702;9.410;2023-11-19T05:45:12;7.40;99.90
5870;DHT22;2961;47.702;9.410;2023-11-19T05:47:39;7.50;99.90
5870;DHT22;2961;47.702;9.410;2023-11-19T05:50:07;7.50;99.90
5870;DHT22;2961;47.702;9.410;2023-11-19T05:52:35;7.60;99.90
5870;DHT22;2961;47.702;9.410;2023-11-19T05:55:02;7.70;99.90
5870;DHT22;2961;47.702;9.410;2023-11-19T05:57:34;7.80;99.90
5870;DHT22;2961;47.702;9.410;2023-11-19T06:00:01;7.80;99.90
5870;DHT22;2961;47.702;9.410;2023-11-19T06:02:29;7.90;99.90
5870;DHT22;2961;47.702;9.410;2023-11-19T06:04:55;7.90;99.90
5870;DHT22;2961;47.702;9.410;2023-11-19T06:07:22;8.00;99.90
5870;DHT22;2961;47.702;9.410;2023-11-19T06:09:50;7.90;99.90
5870;DHT22;2961;47.702;9.410;2023-11-19T06:12:17;7.90;99.90
5870;DHT22;2961;47.702;9.410;2023-11-19T06:14:44;7.90;99.90
5870;DHT22;2961;47.702;9.410;2023-11-19T06:17:11;7.90;99.90
5870;DHT22;2961;47.702;9.410;2023-11-19T06:19:38;8.00;99.90
5870;DHT22;2961;47.702;9.410;2023-11-19T06:22:05;7.90;99.90
5870;DHT22;2961;47.702;9.410;2023-11-19T06:24:32;8.00;99.90
5870;DHT22;2961;47.702;9.410;2023-11-19T06:27:00;8.00;99.90
5870;DHT22;2961;47.702;9.410;2023-11-19T06:29:27;8.00;99.90
5870;DHT22;2961;47.702;9.410;2023-11-19T06:31:53;8.10;99.90
5870;DHT22;2961;47.702;9.410;2023-11-19T06:34:20;8.20;99.90
5870;DHT22;2961;47.702;9.410;2023-11-19T06:36:47;8.30;99.90
5870;DHT22;2961;47.702;9.410;2023-11-19T06:39:14;8.30;99.90
5870;DHT22;2961;47.702;9.410;2023-11-19T06:41:44;8.40;99.90
5870;DHT22;2961;47.702;9.410;2023-11-19T06:44:13;8.50;99.90
5870;DHT22;2961;47.702;9.410;2023-11-19T06:46:40;8.50;99.90
5870;DHT22;2961;47.702;9.410;2023-11-19T06:49:06;8.60;99.90
5870;DHT22;2961;47.702;9.410;2023-11-19T06:51:34;8.70;99.90
5870;DHT22;2961;47.702;9.410;2023-11-19T06:54:00;8.80;99.90
5870;DHT22;2961;47.702;9.410;2023-11-19T06:56:27;8.90;99.90
5870;DHT22;2961;47.702;9.410;2023-11-19T06:58:54;8.90;99.90
5870;DHT22;2961;47.702;9.410;2023-11-19T07:01:22;8.90;99.90
5870;DHT22;2961;47.702;9.410;2023-11-19T07:03:49;8.90;99.90
5870;DHT22;2961;47.702;9.410;2023-11-19T07:06:16;8.90;99.90
5870;DHT22;2961;47.702;9.410;2023-11-19T07:08:43;9.00;99.90
5870;DHT22;2961;47.702;9.410;2023-11-19T07:11:11;9.00;99.90
5870;DHT22;2961;47.702;9.410;2023-11-19T07:13:40;9.10;99.90
5870;DHT22;2961;47.702;9.410;2023-11-19T07:16:08;9.20;99.90
5870;DHT22;2961;47.702;9.410;2023-11-19T07:18:37;9.30;99.90
5870;DHT22;2961;47.702;9.410;2023-11-19T07:21:04;9.20;99.90
5870;DHT22;2961;47.702;9.410;2023-11-19T07:23:32;9.30;99.90
5870;DHT22;2961;47.702;9.410;2023-11-19T07:25:59;9.30;99.90
5870;DHT22;2961;47.702;9.410;2023-11-19T07:28:27;9.30;99.90
5870;DHT22;2961;47.702;9.410;2023-11-19T07:30:54;9.30;99.90
5870;DHT22;2961;47.702;9.410;2023-11-19T07:33:22;9.30;99.90
5870;DHT22;2961;47.702;9.410;2023-11-19T07:35:51;9.40;99.90
5870;DHT22;2961;47.702;9.410;2023-11-19T07:38:18;9.40;99.90
5870;DHT22;2961;47.702;9.410;2023-11-19T07:40:45;9.40;99.90
5870;DHT22;2961;47.702;9.410;2023-11-19T07:43:13;9.40;99.90
5870;DHT22;2961;47.702;9.410;2023-11-19T07:45:39;9.40;99.90
5870;DHT22;2961;47.702;9.410;2023-11-19T07:48:09;9.40;99.90
5870;DHT22;2961;47.702;9.410;2023-11-19T07:50:36;9.50;99.90
5870;DHT22;2961;47.702;9.410;2023-11-19T07:53:04;9.60;99.90
5870;DHT22;2961;47.702;9.410;2023-11-19T07:55:31;9.60;99.90
5870;DHT22;2961;47.702;9.410;2023-11-19T07:57:58;9.60;99.90
5870;DHT22;2961;47.702;9.410;2023-11-19T08:00:24;9.60;99.90
5870;DHT22;2961;47.702;9.410;2023-11-19T08:02:52;9.70;99.90
5870;DHT22;2961;47.702;9.410;2023-11-19T08:05:19;9.80;99.90
5870;DHT22;2961;47.702;9.410;2023-11-19T08:07:45;9.70;99.90
5870;DHT22;2961;47.702;9.410;2023-11-19T08:10:14;9.80;99.90
5870;DHT22;2961;47.702;9.410;2023-11-19T08:12:40;9.70;99.90
5870;DHT22;2961;47.702;9.410;2023-11-19T08:15:08;9.70;99.90
5870;DHT22;2961;47.702;9.410;2023-11-19T08:17:35;9.80;99.90
5870;DHT22;2961;47.702;9.410;2023-11-19T08:20:02;9.70;99.90
5870;DHT22;2961;47.702;9.410;2023-11-19T08:22:30;9.80;99.90
5870;DHT22;2961;47.702;9.410;2023-11-19T08:24:57;9.80;99.90
5870;DHT22;2961;47.702;9.410;2023-11-19T08:27:25;9.80;99.90
5870;DHT22;2961;47.702;9.410;2023-11-19T08:29:53;9.80;99.90
5870;DHT22;2961;47.702;9.410;2023-11-19T08:32:21;9.80;99.90
5870;DHT22;2961;47.702;9.410;2023-11-19T08:34:47;9.80;99.90
5870;DHT22;2961;47.702;9.410;2023-11-19T08:37:14;9.80;99.90
5870;DHT22;2961;47.702;9.410;2023-11-19T08:39:43;9.80;99.90
5870;DHT22;2961;47.702;9.410;2023-11-19T08:42:10;9.80;99.90
5870;DHT22;2961;47.702;9.410;2023-11-19T08:44:38;9.80;99.90
5870;DHT22;2961;47.702;9.410;2023-11-19T08:47:06;9.80;99.90
5870;DHT22;2961;47.702;9.410;2023-11-19T08:49:32;9.80;99.90
5870;DHT22;2961;47.702;9.410;2023-11-19T08:51:59;9.80;99.90
5870;DHT22;2961;47.702;9.410;2023-11-19T08:54:26;9.90;99.90
5870;DHT22;2961;47.702;9.410;2023-11-19T08:56:53;9.80;99.90
5870;DHT22;2961;47.702;9.410;2023-11-19T08:59:20;9.90;99.90
5870;DHT22;2961;47.702;9.410;2023-11-19T09:01:48;9.90;99.90
5870;DHT22;2961;47.702;9.410;2023-11-19T09:04:15;9.90;99.90
5870;DHT22;2961;47.702;9.410;2023-11-19T09:06:42;10.00;99.90
5870;DHT22;2961;47.702;9.410;2023-11-19T09:09:09;10.00;99.90
5870;DHT22;2961;47.702;9.410;2023-11-19T09:11:36;10.10;99.90
5870;DHT22;2961;47.702;9.410;2023-11-19T09:14:03;10.10;99.90
5870;DHT22;2961;47.702;9.410;2023-11-19T09:16:31;10.20;99.90
5870;DHT22;2961;47.702;9.410;2023-11-19T09:18:59;10.20;99.90
5870;DHT22;2961;47.702;9.410;2023-11-19T09:21:27;10.20;99.90
5870;DHT22;2961;47.702;9.410;2023-11-19T09:23:55;10.30;99.90
5870;DHT22;2961;47.702;9.410;2023-11-19T09:26:21;10.30;99.90
5870;DHT22;2961;47.702;9.410;2023-11-19T09:28:48;10.30;99.90
5870;DHT22;2961;47.702;9.410;2023-11-19T09:31:15;10.20;99.90
5870;DHT22;2961;47.702;9.410;2023-11-19T09:33:43;10.30;99.90
5870;DHT22;2961;47.702;9.410;2023-11-19T09:36:12;10.30;99.90
5870;DHT22;2961;47.702;9.410;2023-11-19T09:38:40;10.40;99.90
5870;DHT22;2961;47.702;9.410;2023-11-19T09:41:07;10.40;99.90
5870;DHT22;2961;47.702;9.410;2023-11-19T09:43:35;10.50;99.90
5870;DHT22;2961;47.702;9.410;2023-11-19T09:46:05;10.50;99.90
5870;DHT22;2961;47.702;9.410;2023-11-19T09:48:33;10.50;99.90
5870;DHT22;2961;47.702;9.410;2023-11-19T09:51:03;10.60;99.90
5870;DHT22;2961;47.702;9.410;2023-11-19T09:53:32;10.70;99.90
5870;DHT22;2961;47.702;9.410;2023-11-19T09:56:00;10.80;99.90
5870;DHT22;2961;47.702;9.410;2023-11-19T09:58:28;10.80;99.90
5870;DHT22;2961;47.702;9.410;2023-11-19T10:00:55;10.80;99.90
5870;DHT22;2961;47.702;9.410;2023-11-19T10:03:24;10.90;99.90
5870;DHT22;2961;47.702;9.410;2023-11-19T10:05:52;10.90;99.90
5870;DHT22;2961;47.702;9.410;2023-11-19T10:08:19;11.10;99.90
5870;DHT22;2961;47.702;9.410;2023-11-19T10:10:47;11.00;99.90
5870;DHT22;2961;47.702;9.410;2023-11-19T10:13:14;11.10;99.90
5870;DHT22;2961;47.702;9.410;2023-11-19T10:15:41;11.20;99.90
5870;DHT22;2961;47.702;9.410;2023-11-19T10:18:10;11.30;99.90
5870;DHT22;2961;47.702;9.410;2023-11-19T10:20:37;11.40;99.90
5870;DHT22;2961;47.702;9.410;2023-11-19T10:23:04;11.50;99.90
5870;DHT22;2961;47.702;9.410;2023-11-19T10:25:31;11.60;99.90
5870;DHT22;2961;47.702;9.410;2023-11-19T10:28:00;11.70;99.90
5870;DHT22;2961;47.702;9.410;2023-11-19T10:30:28;11.80;99.90
5870;DHT22;2961;47.702;9.410;2023-11-19T10:33:05;11.80;99.90
5870;DHT22;2961;47.702;9.410;2023-11-19T10:35:32;11.80;99.90
5870;DHT22;2961;47.702;9.410;2023-11-19T10:38:00;11.80;99.90
5870;DHT22;2961;47.702;9.410;2023-11-19T10:40:48;11.80;99.90
5870;DHT22;2961;47.702;9.410;2023-11-19T10:43:17;11.90;99.90
5870;DHT22;2961;47.702;9.410;2023-11-19T10:45:45;12.00;99.90
5870;DHT22;2961;47.702;9.410;2023-11-19T10:48:12;12.00;99.90
5870;DHT22;2961;47.702;9.410;2023-11-19T10:50:40;11.90;99.90
5870;DHT22;2961;47.702;9.410;2023-11-19T10:53:08;11.90;99.90
5870;DHT22;2961;47.702;9.410;2023-11-19T10:55:37;12.00;99.90
5870;DHT22;2961;47.702;9.410;2023-11-19T10:58:05;12.00;99.90
5870;DHT22;2961;47.702;9.410;2023-11-19T11:00:44;12.00;99.90
5870;DHT22;2961;47.702;9.410;2023-11-19T11:03:16;12.10;99.90
5870;DHT22;2961;47.702;9.410;2023-11-19T11:05:43;12.00;99.90
5870;DHT22;2961;47.702;9.410;2023-11-19T11:08:13;11.90;99.90
5870;DHT22;2961;47.702;9.410;2023-11-19T11:10:43;11.90;99.90
5870;DHT22;2961;47.702;9.410;2023-11-19T11:13:11;11.80;99.90
5870;DHT22;2961;47.702;9.410;2023-11-19T11:15:41;11.90;99.90
5870;DHT22;2961;47.702;9.410;2023-11-19T11:18:09;11.90;99.90
5870;DHT22;2961;47.702;9.410;2023-11-19T11:20:36;11.80;99.90
5870;DHT22;2961;47.702;9.410;2023-11-19T11:23:30;11.90;99.90
5870;DHT22;2961;47.702;9.410;2023-11-19T11:26:15;11.80;99.90
5870;DHT22;2961;47.702;9.410;2023-11-19T11:28:51;11.90;99.90
5870;DHT22;2961;47.702;9.410;2023-11-19T11:31:31;11.90;99.90
5870;DHT22;2961;47.702;9.410;2023-11-19T11:37:16;11.90;99.90
5870;DHT22;2961;47.702;9.410;2023-11-19T11:39:45;11.90;99.90
5870;DHT22;2961;47.702;9.410;2023-11-19T11:42:32;11.90;99.90
5870;DHT22;2961;47.702;9.410;2023-11-19T11:44:59;11.90;99.90
5870;DHT22;2961;47.702;9.410;2023-11-19T11:48:08;11.90;99.90
5870;DHT22;2961;47.702;9.410;2023-11-19T11:50:47;11.90;99.90
5870;DHT22;2961;47.702;9.410;2023-11-19T11:53:19;12.10;99.90
5870;DHT22;2961;47.702;9.410;2023-11-19T11:55:55;12.10;99.90
5870;DHT22;2961;47.702;9.410;2023-11-19T11:58:31;12.20;99.90
5870;DHT22;2961;47.702;9.410;2023-11-19T12:01:01;12.30;99.90
5870;DHT22;2961;47.702;9.410;2023-11-19T12:03:33;12.30;99.90
5870;DHT22;2961;47.702;9.410;2023-11-19T12:06:00;12.30;99.90
5870;DHT22;2961;47.702;9.410;2023-11-19T12:08:29;12.30;99.90
5870;DHT22;2961;47.702;9.410;2023-11-19T12:10:58;12.40;99.90
5870;DHT22;2961;47.702;9.410;2023-11-19T12:13:42;12.40;99.90
5870;DHT22;2961;47.702;9.410;2023-11-19T12:16:10;12.40;99.90
5870;DHT22;2961;47.702;9.410;2023-11-19T12:18:40;12.50;99.90
5870;DHT22;2961;47.702;9.410;2023-11-19T12:21:08;12.50;99.90
5870;DHT22;2961;47.702;9.410;2023-11-19T12:23:44;12.60;99.90
5870;DHT22;2961;47.702;9.410;2023-11-19T12:26:30;12.60;99.90
5870;DHT22;2961;47.702;9.410;2023-11-19T12:29:00;12.50;99.90
5870;DHT22;2961;47.702;9.410;2023-11-19T12:31:29;12.50;99.90
5870;DHT22;2961;47.702;9.410;2023-11-19T12:33:58;12.50;99.90
5870;DHT22;2961;47.702;9.410;2023-11-19T12:36:25;12.40;99.90
5870;DHT22;2961;47.702;9.410;2023-11-19T12:38:52;12.30;99.90
5870;DHT22;2961;47.702;9.410;2023-11-19T12:41:19;12.20;99.90
5870;DHT22;2961;47.702;9.410;2023-11-19T12:43:49;12.20;99.90
5870;DHT22;2961;47.702;9.410;2023-11-19T12:46:19;12.30;99.90
5870;DHT22;2961;47.702;9.410;2023-11-19T12:48:46;12.30;99.90
5870;DHT22;2961;47.702;9.410;2023-11-19T12:51:15;12.30;99.90
5870;DHT22;2961;47.702;9.410;2023-11-19T12:53:49;12.40;99.90
5870;DHT22;2961;47.702;9.410;2023-11-19T12:56:16;12.50;99.90
5870;DHT22;2961;47.702;9.410;2023-11-19T12:58:43;12.50;99.90
5870;DHT22;2961;47.702;9.410;2023-11-19T13:01:10;12.50;99.90
5870;DHT22;2961;47.702;9.410;2023-11-19T13:03:41;12.50;99.90
5870;DHT22;2961;47.702;9.410;2023-11-19T13:06:10;12.50;99.90
5870;DHT22;2961;47.702;9.410;2023-11-19T13:08:39;12.50;99.90
5870;DHT22;2961;47.702;9.410;2023-11-19T13:11:07;12.50;99.90
5870;DHT22;2961;47.702;9.410;2023-11-19T13:13:53;12.50;99.90
5870;DHT22;2961;47.702;9.410;2023-11-19T13:16:20;12.50;99.90
5870;DHT22;2961;47.702;9.410;2023-11-19T13:18:47;12.60;99.90
5870;DHT22;2961;47.702;9.410;2023-11-19T13:21:14;12.60;99.90
5870;DHT22;2961;47.702;9.410;2023-11-19T13:23:42;12.60;99.90
5870;DHT22;2961;47.702;9.410;2023-11-19T13:26:09;12.70;99.90
5870;DHT22;2961;47.702;9.410;2023-11-19T13:28:36;12.70;99.90
5870;DHT22;2961;47.702;9.410;2023-11-19T13:31:04;12.70;99.90
5870;DHT22;2961;47.702;9.410;2023-11-19T13:33:31;12.80;99.90
5870;DHT22;2961;47.702;9.410;2023-11-19T13:35:57;12.90;99.90
5870;DHT22;2961;47.702;9.410;2023-11-19T13:38:25;13.00;99.90
5870;DHT22;2961;47.702;9.410;2023-11-19T13:40:53;12.90;99.90
5870;DHT22;2961;47.702;9.410;2023-11-19T13:43:20;12.90;99.90
5870;DHT22;2961;47.702;9.410;2023-11-19T13:45:47;12.90;99.90
5870;DHT22;2961;47.702;9.410;2023-11-19T13:48:13;12.90;99.90
5870;DHT22;2961;47.702;9.410;2023-11-19T13:50:40;12.80;99.90
5870;DHT22;2961;47.702;9.410;2023-11-19T13:53:07;12.80;99.90
5870;DHT22;2961;47.702;9.410;2023-11-19T13:55:34;12.70;99.90
5870;DHT22;2961;47.702;9.410;2023-11-19T13:58:02;12.70;99.90
5870;DHT22;2961;47.702;9.410;2023-11-19T14:00:29;12.60;99.90
5870;DHT22;2961;47.702;9.410;2023-11-19T14:02:56;12.60;99.90
5870;DHT22;2961;47.702;9.410;2023-11-19T14:05:23;12.60;99.90
5870;DHT22;2961;47.702;9.410;2023-11-19T14:07:50;12.60;99.90
5870;DHT22;2961;47.702;9.410;2023-11-19T14:10:17;12.60;99.90
5870;DHT22;2961;47.702;9.410;2023-11-19T14:12:44;12.60;99.90
5870;DHT22;2961;47.702;9.410;2023-11-19T14:15:12;12.60;99.90
5870;DHT22;2961;47.702;9.410;2023-11-19T14:17:39;12.50;99.90
5870;DHT22;2961;47.702;9.410;2023-11-19T14:20:07;12.40;99.90
5870;DHT22;2961;47.702;9.410;2023-11-19T14:22:38;12.40;99.90
5870;DHT22;2961;47.702;9.410;2023-11-19T14:25:05;12.40;99.90
5870;DHT22;2961;47.702;9.410;2023-11-19T14:27:35;12.40;99.90
5870;DHT22;2961;47.702;9.410;2023-11-19T14:30:03;12.40;99.90
5870;DHT22;2961;47.702;9.410;2023-11-19T14:32:32;12.40;99.90
5870;DHT22;2961;47.702;9.410;2023-11-19T14:34:59;12.40;99.90
5870;DHT22;2961;47.702;9.410;2023-11-19T14:37:25;12.40;99.90
5870;DHT22;2961;47.702;9.410;2023-11-19T14:39:52;12.30;99.90
5870;DHT22;2961;47.702;9.410;2023-11-19T14:42:19;12.30;99.90
5870;DHT22;2961;47.702;9.410;2023-11-19T14:44:46;12.40;99.90
5870;DHT22;2961;47.702;9.410;2023-11-19T14:47:13;12.40;99.90
5870;DHT22;2961;47.702;9.410;2023-11-19T14:49:41;12.40;99.90
5870;DHT22;2961;47.702;9.410;2023-11-19T14:52:08;12.40;99.90
5870;DHT22;2961;47.702;9.410;2023-11-19T14:54:35;12.30;99.90
5870;DHT22;2961;47.702;9.410;2023-11-19T14:57:02;12.30;99.90
5870;DHT22;2961;47.702;9.410;2023-11-19T14:59:29;12.30;99.90
5870;DHT22;2961;47.702;9.410;2023-11-19T15:01:57;12.20;99.90
5870;DHT22;2961;47.702;9.410;2023-11-19T15:04:25;12.10;99.90
5870;DHT22;2961;47.702;9.410;2023-11-19T15:06:53;12.00;99.90
5870;DHT22;2961;47.702;9.410;2023-11-19T15:09:22;12.00;99.90
5870;DHT22;2961;47.702;9.410;2023-11-19T15:11:50;11.90;99.90
5870;DHT22;2961;47.702;9.410;2023-11-19T15:14:16;11.80;99.90
5870;DHT22;2961;47.702;9.410;2023-11-19T15:16:45;11.80;99.90
5870;DHT22;2961;47.702;9.410;2023-11-19T15:19:13;11.70;99.90
5870;DHT22;2961;47.702;9.410;2023-11-19T15:21:39;11.60;99.90
5870;DHT22;2961;47.702;9.410;2023-11-19T15:24:09;11.60;99.90
5870;DHT22;2961;47.702;9.410;2023-11-19T15:26:36;11.50;99.90
5870;DHT22;2961;47.702;9.410;2023-11-19T15:29:04;11.40;99.90
5870;DHT22;2961;47.702;9.410;2023-11-19T15:31:31;11.40;99.90
5870;DHT22;2961;47.702;9.410;2023-11-19T15:33:58;11.40;99.90
5870;DHT22;2961;47.702;9.410;2023-11-19T15:36:25;11.40;99.90
5870;DHT22;2961;47.702;9.410;2023-11-19T15:38:52;11.30;99.90
5870;DHT22;2961;47.702;9.410;2023-11-19T15:41:20;11.30;99.90
5870;DHT22;2961;47.702;9.410;2023-11-19T15:43:47;11.20;99.90
5870;DHT22;2961;47.702;9.410;2023-11-19T15:46:13;11.10;99.90
5870;DHT22;2961;47.702;9.410;2023-11-19T15:48:41;11.00;99.90
5870;DHT22;2961;47.702;9.410;2023-11-19T15:51:08;10.90;99.90
5870;DHT22;2961;47.702;9.410;2023-11-19T15:53:35;10.80;99.90
5870;DHT22;2961;47.702;9.410;2023-11-19T15:56:01;10.70;99.90
5870;DHT22;2961;47.702;9.410;2023-11-19T15:58:30;10.60;99.90
5870;DHT22;2961;47.702;9.410;2023-11-19T16:00:56;10.50;99.90
5870;DHT22;2961;47.702;9.410;2023-11-19T16:03:23;10.60;99.90
5870;DHT22;2961;47.702;9.410;2023-11-19T16:05:50;10.60;99.90
5870;DHT22;2961;47.702;9.410;2023-11-19T16:08:17;10.60;99.90
5870;DHT22;2961;47.702;9.410;2023-11-19T16:10:44;10.50;99.90
5870;DHT22;2961;47.702;9.410;2023-11-19T16:13:12;10.50;99.90
5870;DHT22;2961;47.702;9.410;2023-11-19T16:15:40;10.50;99.90
5870;DHT22;2961;47.702;9.410;2023-11-19T16:18:07;10.50;99.90
5870;DHT22;2961;47.702;9.410;2023-11-19T16:20:35;10.50;99.90